Station Historical Data
Daily Summary for June 11, 2017 Units:  Both    English   Metric
« Previous Day
Next Day »
Daily Weekly Monthly Yearly Custom
  High: Low: Average:
Temperature: 81.2 °F /  27.3 °C 70.9 °F /  21.6 °C 75.5 °F /  24.2 °C
Dew Point: 63.1 °F /  17.3 °C 57.1 °F /  13.9 °C 60.5 °F /  15.8 °C
Humidity: 68% 50% 60%
Wind Speed: 22.0mph /  35.4km/h - 7.4mph /  11.9km/h
Wind Gust: 29.0mph /  46.7km/h - -
Wind- - WSW
Pressure: 30.00 in /  1015.8 hPa 29.89 in /  1012.1 hPa -
Precipitation: 0.00 in /  0 mm    
Historical Graphs
 
 
Tabular Data for June 11, 2017
Time Temperature Dew Point Pressure Wind Wind Speed Wind Gust Humidity Rainfall Rate (Hourly)
00:04 74.8 °F /  23.8 °C 61.4 °F /  16.3 °C 29.90in /  1012.4hPa SW 4.0mph /  6.4km/h 12.0mph /  19.3km/h 63% 0.00in /  0mm
00:09 74.8 °F /  23.8 °C 61.4 °F /  16.3 °C 29.89in /  1012.1hPa SSW 5.0mph /  8km/h 12.0mph /  19.3km/h 63% 0.00in /  0mm
00:14 75.0 °F /  23.9 °C 61.5 °F /  16.4 °C 29.90in /  1012.4hPa SSW 4.0mph /  6.4km/h 14.0mph /  22.5km/h 63% 0.00in /  0mm
00:19 74.8 °F /  23.8 °C 61.4 °F /  16.3 °C 29.89in /  1012.1hPa SW 7.0mph /  11.3km/h 10.0mph /  16.1km/h 63% 0.00in /  0mm
00:24 74.6 °F /  23.7 °C 61.2 °F /  16.2 °C 29.89in /  1012.1hPa WSW 6.0mph /  9.7km/h 12.0mph /  19.3km/h 63% 0.00in /  0mm
00:29 74.6 °F /  23.7 °C 61.2 °F /  16.2 °C 29.89in /  1012.1hPa SW 5.0mph /  8km/h 12.0mph /  19.3km/h 63% 0.00in /  0mm
00:34 74.8 °F /  23.8 °C 61.4 °F /  16.3 °C 29.90in /  1012.4hPa SW 5.0mph /  8km/h 14.0mph /  22.5km/h 63% 0.00in /  0mm
00:39 74.8 °F /  23.8 °C 61.4 °F /  16.3 °C 29.90in /  1012.4hPa SW 6.0mph /  9.7km/h 14.0mph /  22.5km/h 63% 0.00in /  0mm
00:44 74.7 °F /  23.7 °C 61.3 °F /  16.3 °C 29.89in /  1012.1hPa SW 5.0mph /  8km/h 13.0mph /  20.9km/h 63% 0.00in /  0mm
00:49 74.6 °F /  23.7 °C 61.2 °F /  16.2 °C 29.89in /  1012.1hPa SSW 6.0mph /  9.7km/h 12.0mph /  19.3km/h 63% 0.00in /  0mm
00:54 74.5 °F /  23.6 °C 61.1 °F /  16.2 °C 29.89in /  1012.1hPa SSW 3.0mph /  4.8km/h 11.0mph /  17.7km/h 63% 0.00in /  0mm
00:59 74.5 °F /  23.6 °C 61.1 °F /  16.2 °C 29.89in /  1012.1hPa SW 5.0mph /  8km/h 12.0mph /  19.3km/h 63% 0.00in /  0mm
01:05 74.1 °F /  23.4 °C 61.1 °F /  16.2 °C 29.89in /  1012.1hPa WSW 6.0mph /  9.7km/h 9.0mph /  14.5km/h 64% 0.00in /  0mm
01:10 74.1 °F /  23.4 °C 60.7 °F /  15.9 °C 29.90in /  1012.4hPa SW 6.0mph /  9.7km/h 11.0mph /  17.7km/h 63% 0.00in /  0mm
01:15 74.2 °F /  23.4 °C 60.8 °F /  16 °C 29.90in /  1012.4hPa SW 3.0mph /  4.8km/h 11.0mph /  17.7km/h 63% 0.00in /  0mm
01:20 74.3 °F /  23.5 °C 60.9 °F /  16.1 °C 29.90in /  1012.4hPa SW 5.0mph /  8km/h 13.0mph /  20.9km/h 63% 0.00in /  0mm
01:25 74.3 °F /  23.5 °C 60.9 °F /  16.1 °C 29.89in /  1012.1hPa SSW 6.0mph /  9.7km/h 13.0mph /  20.9km/h 63% 0.00in /  0mm
01:30 74.3 °F /  23.5 °C 60.9 °F /  16.1 °C 29.89in /  1012.1hPa SSW 6.0mph /  9.7km/h 11.0mph /  17.7km/h 63% 0.00in /  0mm
01:35 74.3 °F /  23.5 °C 60.9 °F /  16.1 °C 29.89in /  1012.1hPa SSW 5.0mph /  8km/h 12.0mph /  19.3km/h 63% 0.00in /  0mm
01:40 74.2 °F /  23.4 °C 60.8 °F /  16 °C 29.90in /  1012.4hPa SW 5.0mph /  8km/h 12.0mph /  19.3km/h 63% 0.00in /  0mm
01:45 74.2 °F /  23.4 °C 60.3 °F /  15.7 °C 29.90in /  1012.4hPa WSW 13.0mph /  20.9km/h 13.0mph /  20.9km/h 62% 0.00in /  0mm
01:50 74.0 °F /  23.3 °C 60.2 °F /  15.7 °C 29.90in /  1012.4hPa SW 6.0mph /  9.7km/h 13.0mph /  20.9km/h 62% 0.00in /  0mm
01:55 74.0 °F /  23.3 °C 60.2 °F /  15.7 °C 29.90in /  1012.4hPa SW 6.0mph /  9.7km/h 13.0mph /  20.9km/h 62% 0.00in /  0mm
02:00 73.9 °F /  23.3 °C 60.1 °F /  15.6 °C 29.90in /  1012.4hPa WSW 4.0mph /  6.4km/h 10.0mph /  16.1km/h 62% 0.00in /  0mm
02:05 73.9 °F /  23.3 °C 59.6 °F /  15.3 °C 29.90in /  1012.4hPa SW 5.0mph /  8km/h 14.0mph /  22.5km/h 61% 0.00in /  0mm
02:10 73.9 °F /  23.3 °C 59.6 °F /  15.3 °C 29.90in /  1012.4hPa SSW 2.0mph /  3.2km/h 13.0mph /  20.9km/h 61% 0.00in /  0mm
02:15 74.0 °F /  23.3 °C 59.7 °F /  15.4 °C 29.90in /  1012.4hPa SSW 3.0mph /  4.8km/h 13.0mph /  20.9km/h 61% 0.00in /  0mm
02:20 73.8 °F /  23.2 °C 59.5 °F /  15.3 °C 29.91in /  1012.8hPa SW 6.0mph /  9.7km/h 13.0mph /  20.9km/h 61% 0.00in /  0mm
02:25 73.8 °F /  23.2 °C 59.0 °F /  15 °C 29.91in /  1012.8hPa SW 7.0mph /  11.3km/h 14.0mph /  22.5km/h 60% 0.00in /  0mm
02:30 73.6 °F /  23.1 °C 58.9 °F /  14.9 °C 29.91in /  1012.8hPa SW 6.0mph /  9.7km/h 14.0mph /  22.5km/h 60% 0.00in /  0mm
02:35 73.5 °F /  23.1 °C 58.8 °F /  14.9 °C 29.91in /  1012.8hPa WSW 7.0mph /  11.3km/h 14.0mph /  22.5km/h 60% 0.00in /  0mm
02:40 73.6 °F /  23.1 °C 58.4 °F /  14.7 °C 29.91in /  1012.8hPa SW 6.0mph /  9.7km/h 11.0mph /  17.7km/h 59% 0.00in /  0mm
02:45 73.5 °F /  23.1 °C 58.3 °F /  14.6 °C 29.91in /  1012.8hPa SW 3.0mph /  4.8km/h 17.0mph /  27.4km/h 59% 0.00in /  0mm
02:50 73.3 °F /  22.9 °C 58.1 °F /  14.5 °C 29.91in /  1012.8hPa SW 5.0mph /  8km/h 17.0mph /  27.4km/h 59% 0.00in /  0mm
02:55 73.3 °F /  22.9 °C 57.6 °F /  14.2 °C 29.91in /  1012.8hPa SW 5.0mph /  8km/h 16.0mph /  25.7km/h 58% 0.00in /  0mm
03:00 73.5 °F /  23.1 °C 57.8 °F /  14.3 °C 29.91in /  1012.8hPa SW 6.0mph /  9.7km/h 16.0mph /  25.7km/h 58% 0.00in /  0mm
03:05 73.4 °F /  23 °C 57.7 °F /  14.3 °C 29.92in /  1013.1hPa SW 6.0mph /  9.7km/h 14.0mph /  22.5km/h 58% 0.00in /  0mm
03:10 73.5 °F /  23.1 °C 57.8 °F /  14.3 °C 29.92in /  1013.1hPa South 2.0mph /  3.2km/h 16.0mph /  25.7km/h 58% 0.00in /  0mm
03:15 73.7 °F /  23.2 °C 57.5 °F /  14.2 °C 29.92in /  1013.1hPa SW 5.0mph /  8km/h 16.0mph /  25.7km/h 57% 0.00in /  0mm
03:20 73.6 °F /  23.1 °C 57.4 °F /  14.1 °C 29.92in /  1013.1hPa SW 7.0mph /  11.3km/h 16.0mph /  25.7km/h 57% 0.00in /  0mm
03:25 73.4 °F /  23 °C 57.2 °F /  14 °C 29.92in /  1013.1hPa SSW 6.0mph /  9.7km/h 9.0mph /  14.5km/h 57% 0.00in /  0mm
03:30 73.4 °F /  23 °C 57.2 °F /  14 °C 29.93in /  1013.4hPa SW 4.0mph /  6.4km/h 13.0mph /  20.9km/h 57% 0.00in /  0mm
03:35 73.5 °F /  23.1 °C 57.3 °F /  14.1 °C 29.93in /  1013.4hPa South 7.0mph /  11.3km/h 12.0mph /  19.3km/h 57% 0.00in /  0mm
03:40 73.5 °F /  23.1 °C 57.3 °F /  14.1 °C 29.93in /  1013.4hPa SW 11.0mph /  17.7km/h 13.0mph /  20.9km/h 57% 0.00in /  0mm
03:45 73.5 °F /  23.1 °C 57.3 °F /  14.1 °C 29.93in /  1013.4hPa SW 8.0mph /  12.9km/h 14.0mph /  22.5km/h 57% 0.00in /  0mm
03:50 73.4 °F /  23 °C 57.2 °F /  14 °C 29.93in /  1013.4hPa West 4.0mph /  6.4km/h 8.0mph /  12.9km/h 57% 0.00in /  0mm
03:55 73.2 °F /  22.9 °C 57.1 °F /  13.9 °C 29.93in /  1013.4hPa SW 5.0mph /  8km/h 12.0mph /  19.3km/h 57% 0.00in /  0mm
04:00 73.1 °F /  22.8 °C 57.4 °F /  14.1 °C 29.93in /  1013.4hPa SW 5.0mph /  8km/h 12.0mph /  19.3km/h 58% 0.00in /  0mm
04:05 73.2 °F /  22.9 °C 57.5 °F /  14.2 °C 29.94in /  1013.8hPa SW 6.0mph /  9.7km/h 14.0mph /  22.5km/h 58% 0.00in /  0mm
04:10 73.2 °F /  22.9 °C 57.5 °F /  14.2 °C 29.93in /  1013.4hPa SW 6.0mph /  9.7km/h 14.0mph /  22.5km/h 58% 0.00in /  0mm
04:15 73.3 °F /  22.9 °C 57.6 °F /  14.2 °C 29.93in /  1013.4hPa SW 6.0mph /  9.7km/h 20.0mph /  32.2km/h 58% 0.00in /  0mm
04:20 73.4 °F /  23 °C 57.7 °F /  14.3 °C 29.93in /  1013.4hPa WSW 6.0mph /  9.7km/h 17.0mph /  27.4km/h 58% 0.00in /  0mm
04:25 73.3 °F /  22.9 °C 58.1 °F /  14.5 °C 29.93in /  1013.4hPa SW 7.0mph /  11.3km/h 17.0mph /  27.4km/h 59% 0.00in /  0mm
04:30 73.3 °F /  22.9 °C 58.1 °F /  14.5 °C 29.93in /  1013.4hPa WSW 8.0mph /  12.9km/h 15.0mph /  24.1km/h 59% 0.00in /  0mm
04:35 73.3 °F /  22.9 °C 58.6 °F /  14.8 °C 29.93in /  1013.4hPa WSW 3.0mph /  4.8km/h 14.0mph /  22.5km/h 60% 0.00in /  0mm
04:40 73.2 °F /  22.9 °C 58.5 °F /  14.7 °C 29.93in /  1013.4hPa WSW 12.0mph /  19.3km/h 16.0mph /  25.7km/h 60% 0.00in /  0mm
04:45 73.3 °F /  22.9 °C 58.6 °F /  14.8 °C 29.93in /  1013.4hPa SSW 7.0mph /  11.3km/h 18.0mph /  29km/h 60% 0.00in /  0mm
04:50 73.4 °F /  23 °C 58.7 °F /  14.8 °C 29.93in /  1013.4hPa WNW 13.0mph /  20.9km/h 19.0mph /  30.6km/h 60% 0.00in /  0mm
04:55 73.4 °F /  23 °C 58.7 °F /  14.8 °C 29.93in /  1013.4hPa SW 9.0mph /  14.5km/h 21.0mph /  33.8km/h 60% 0.00in /  0mm
05:00 73.4 °F /  23 °C 58.7 °F /  14.8 °C 29.93in /  1013.4hPa WSW 8.0mph /  12.9km/h 21.0mph /  33.8km/h 60% 0.00in /  0mm
05:05 73.5 °F /  23.1 °C 58.8 °F /  14.9 °C 29.93in /  1013.4hPa WSW 9.0mph /  14.5km/h 19.0mph /  30.6km/h 60% 0.00in /  0mm
05:10 73.6 °F /  23.1 °C 58.9 °F /  14.9 °C 29.93in /  1013.4hPa WSW 7.0mph /  11.3km/h 20.0mph /  32.2km/h 60% 0.00in /  0mm
05:15 73.5 °F /  23.1 °C 58.8 °F /  14.9 °C 29.94in /  1013.8hPa WSW 7.0mph /  11.3km/h 17.0mph /  27.4km/h 60% 0.00in /  0mm
05:20 73.5 °F /  23.1 °C 58.8 °F /  14.9 °C 29.94in /  1013.8hPa WSW 8.0mph /  12.9km/h 18.0mph /  29km/h 60% 0.00in /  0mm
05:25 73.3 °F /  22.9 °C 58.6 °F /  14.8 °C 29.94in /  1013.8hPa SW 8.0mph /  12.9km/h 20.0mph /  32.2km/h 60% 0.00in /  0mm
05:30 73.3 °F /  22.9 °C 59.0 °F /  15 °C 29.94in /  1013.8hPa SW 9.0mph /  14.5km/h 20.0mph /  32.2km/h 61% 0.00in /  0mm
05:35 73.2 °F /  22.9 °C 58.9 °F /  14.9 °C 29.94in /  1013.8hPa SW 8.0mph /  12.9km/h 17.0mph /  27.4km/h 61% 0.00in /  0mm
05:40 73.0 °F /  22.8 °C 58.8 °F /  14.9 °C 29.94in /  1013.8hPa SW 7.0mph /  11.3km/h 14.0mph /  22.5km/h 61% 0.00in /  0mm
05:45 72.9 °F /  22.7 °C 58.7 °F /  14.8 °C 29.95in /  1014.1hPa SW 7.0mph /  11.3km/h 19.0mph /  30.6km/h 61% 0.00in /  0mm
05:50 72.9 °F /  22.7 °C 59.1 °F /  15.1 °C 29.95in /  1014.1hPa SW 8.0mph /  12.9km/h 19.0mph /  30.6km/h 62% 0.00in /  0mm
05:55 73.0 °F /  22.8 °C 59.2 °F /  15.1 °C 29.95in /  1014.1hPa SW 8.0mph /  12.9km/h 17.0mph /  27.4km/h 62% 0.00in /  0mm
06:00 73.1 °F /  22.8 °C 58.8 °F /  14.9 °C 29.95in /  1014.1hPa SW 9.0mph /  14.5km/h 19.0mph /  30.6km/h 61% 0.00in /  0mm
06:05 73.1 °F /  22.8 °C 58.8 °F /  14.9 °C 29.95in /  1014.1hPa WSW 8.0mph /  12.9km/h 13.0mph /  20.9km/h 61% 0.00in /  0mm
06:10 73.1 °F /  22.8 °C 58.8 °F /  14.9 °C 29.95in /  1014.1hPa WSW 13.0mph /  20.9km/h 18.0mph /  29km/h 61% 0.00in /  0mm
06:15 73.3 °F /  22.9 °C 59.0 °F /  15 °C 29.96in /  1014.4hPa WSW 9.0mph /  14.5km/h 18.0mph /  29km/h 61% 0.00in /  0mm
06:20 73.4 °F /  23 °C 59.1 °F /  15.1 °C 29.96in /  1014.4hPa West 5.0mph /  8km/h 21.0mph /  33.8km/h 61% 0.00in /  0mm
06:25 73.5 °F /  23.1 °C 59.2 °F /  15.1 °C 29.96in /  1014.4hPa WSW 5.0mph /  8km/h 18.0mph /  29km/h 61% 0.00in /  0mm
06:30 73.5 °F /  23.1 °C 59.2 °F /  15.1 °C 29.97in /  1014.8hPa WSW 9.0mph /  14.5km/h 19.0mph /  30.6km/h 61% 0.00in /  0mm
06:35 73.6 °F /  23.1 °C 59.3 °F /  15.2 °C 29.96in /  1014.4hPa WSW 10.0mph /  16.1km/h 21.0mph /  33.8km/h 61% 0.00in /  0mm
06:40 73.6 °F /  23.1 °C 59.3 °F /  15.2 °C 29.97in /  1014.8hPa WSW 10.0mph /  16.1km/h 21.0mph /  33.8km/h 61% 0.00in /  0mm
06:45 73.6 °F /  23.1 °C 59.3 °F /  15.2 °C 29.97in /  1014.8hPa WSW 10.0mph /  16.1km/h 19.0mph /  30.6km/h 61% 0.00in /  0mm
06:50 73.6 °F /  23.1 °C 59.3 °F /  15.2 °C 29.97in /  1014.8hPa SW 9.0mph /  14.5km/h 19.0mph /  30.6km/h 61% 0.00in /  0mm
06:55 73.6 °F /  23.1 °C 59.3 °F /  15.2 °C 29.97in /  1014.8hPa SSW 6.0mph /  9.7km/h 25.0mph /  40.2km/h 61% 0.00in /  0mm
06:59 73.7 °F /  23.2 °C 59.4 °F /  15.2 °C 29.97in /  1014.8hPa WSW 10.0mph /  16.1km/h 25.0mph /  40.2km/h 61% 0.00in /  0mm
07:05 73.8 °F /  23.2 °C 59.5 °F /  15.3 °C 29.97in /  1014.8hPa West 13.0mph /  20.9km/h 19.0mph /  30.6km/h 61% 0.00in /  0mm
07:10 73.9 °F /  23.3 °C 59.6 °F /  15.3 °C 29.97in /  1014.8hPa WSW 10.0mph /  16.1km/h 20.0mph /  32.2km/h 61% 0.00in /  0mm
07:15 74.0 °F /  23.3 °C 59.7 °F /  15.4 °C 29.97in /  1014.8hPa WSW 6.0mph /  9.7km/h 17.0mph /  27.4km/h 61% 0.00in /  0mm
07:20 74.1 °F /  23.4 °C 59.8 °F /  15.4 °C 29.97in /  1014.8hPa WSW 9.0mph /  14.5km/h 16.0mph /  25.7km/h 61% 0.00in /  0mm
07:24 74.2 °F /  23.4 °C 59.4 °F /  15.2 °C 29.97in /  1014.8hPa SW 10.0mph /  16.1km/h 25.0mph /  40.2km/h 60% 0.00in /  0mm
07:30 74.4 °F /  23.6 °C 59.6 °F /  15.3 °C 29.98in /  1015.1hPa WSW 10.0mph /  16.1km/h 25.0mph /  40.2km/h 60% 0.00in /  0mm
07:35 74.4 °F /  23.6 °C 59.6 °F /  15.3 °C 29.97in /  1014.8hPa WSW 10.0mph /  16.1km/h 21.0mph /  33.8km/h 60% 0.00in /  0mm
07:40 74.6 °F /  23.7 °C 59.8 °F /  15.4 °C 29.97in /  1014.8hPa WSW 10.0mph /  16.1km/h 22.0mph /  35.4km/h 60% 0.00in /  0mm
07:45 74.7 °F /  23.7 °C 59.9 °F /  15.5 °C 29.97in /  1014.8hPa SW 9.0mph /  14.5km/h 22.0mph /  35.4km/h 60% 0.00in /  0mm
07:50 74.8 °F /  23.8 °C 60.0 °F /  15.6 °C 29.97in /  1014.8hPa WSW 14.0mph /  22.5km/h 17.0mph /  27.4km/h 60% 0.00in /  0mm
07:55 74.9 °F /  23.8 °C 60.1 °F /  15.6 °C 29.97in /  1014.8hPa WSW 9.0mph /  14.5km/h 18.0mph /  29km/h 60% 0.00in /  0mm
07:59 75.0 °F /  23.9 °C 60.2 °F /  15.7 °C 29.97in /  1014.8hPa WSW 8.0mph /  12.9km/h 20.0mph /  32.2km/h 60% 0.00in /  0mm
08:05 75.1 °F /  23.9 °C 60.3 °F /  15.7 °C 29.97in /  1014.8hPa WSW 9.0mph /  14.5km/h 20.0mph /  32.2km/h 60% 0.00in /  0mm
08:10 75.2 °F /  24 °C 59.9 °F /  15.5 °C 29.97in /  1014.8hPa WSW 6.0mph /  9.7km/h 21.0mph /  33.8km/h 59% 0.00in /  0mm
08:15 75.3 °F /  24.1 °C 60.5 °F /  15.8 °C 29.97in /  1014.8hPa WSW 13.0mph /  20.9km/h 17.0mph /  27.4km/h 60% 0.00in /  0mm
08:20 75.3 °F /  24.1 °C 60.0 °F /  15.6 °C 29.97in /  1014.8hPa West 13.0mph /  20.9km/h 25.0mph /  40.2km/h 59% 0.00in /  0mm
08:25 75.3 °F /  24.1 °C 60.5 °F /  15.8 °C 29.97in /  1014.8hPa SW 15.0mph /  24.1km/h 24.0mph /  38.6km/h 60% 0.00in /  0mm
08:30 75.4 °F /  24.1 °C 60.5 °F /  15.8 °C 29.97in /  1014.8hPa WSW 10.0mph /  16.1km/h 24.0mph /  38.6km/h 60% 0.00in /  0mm
08:35 75.4 °F /  24.1 °C 60.1 °F /  15.6 °C 29.98in /  1015.1hPa WSW 11.0mph /  17.7km/h 22.0mph /  35.4km/h 59% 0.00in /  0mm
08:40 75.4 °F /  24.1 °C 60.5 °F /  15.8 °C 29.98in /  1015.1hPa WSW 17.0mph /  27.4km/h 18.0mph /  29km/h 60% 0.00in /  0mm
08:45 75.5 °F /  24.2 °C 60.6 °F /  15.9 °C 29.98in /  1015.1hPa SSW 12.0mph /  19.3km/h 20.0mph /  32.2km/h 60% 0.00in /  0mm
08:50 75.6 °F /  24.2 °C 60.7 °F /  15.9 °C 29.98in /  1015.1hPa WSW 15.0mph /  24.1km/h 23.0mph /  37km/h 60% 0.00in /  0mm
08:54 75.6 °F /  24.2 °C 60.7 °F /  15.9 °C 29.98in /  1015.1hPa WSW 10.0mph /  16.1km/h 23.0mph /  37km/h 60% 0.00in /  0mm
09:00 75.8 °F /  24.3 °C 60.9 °F /  16.1 °C 29.98in /  1015.1hPa WSW 10.0mph /  16.1km/h 18.0mph /  29km/h 60% 0.00in /  0mm
09:05 75.6 °F /  24.2 °C 61.2 °F /  16.2 °C 29.98in /  1015.1hPa WSW 10.0mph /  16.1km/h 18.0mph /  29km/h 61% 0.00in /  0mm
09:10 75.6 °F /  24.2 °C 60.7 °F /  15.9 °C 29.98in /  1015.1hPa WSW 10.0mph /  16.1km/h 23.0mph /  37km/h 60% 0.00in /  0mm
09:15 75.7 °F /  24.3 °C 61.3 °F /  16.3 °C 29.98in /  1015.1hPa WSW 10.0mph /  16.1km/h 23.0mph /  37km/h 61% 0.00in /  0mm
09:19 75.8 °F /  24.3 °C 61.4 °F /  16.3 °C 29.98in /  1015.1hPa SW 5.0mph /  8km/h 20.0mph /  32.2km/h 61% 0.00in /  0mm
09:24 75.7 °F /  24.3 °C 61.3 °F /  16.3 °C 29.98in /  1015.1hPa WSW 7.0mph /  11.3km/h 20.0mph /  32.2km/h 61% 0.00in /  0mm
09:29 76.0 °F /  24.4 °C 61.6 °F /  16.4 °C 29.98in /  1015.1hPa SW 9.0mph /  14.5km/h 20.0mph /  32.2km/h 61% 0.00in /  0mm
09:34 75.7 °F /  24.3 °C 61.8 °F /  16.6 °C 29.98in /  1015.1hPa WSW 9.0mph /  14.5km/h 21.0mph /  33.8km/h 62% 0.00in /  0mm
09:40 76.0 °F /  24.4 °C 61.6 °F /  16.4 °C 29.98in /  1015.1hPa SW 9.0mph /  14.5km/h 18.0mph /  29km/h 61% 0.00in /  0mm
09:45 76.2 °F /  24.6 °C 61.8 °F /  16.6 °C 29.98in /  1015.1hPa West 10.0mph /  16.1km/h 18.0mph /  29km/h 61% 0.00in /  0mm
09:50 76.4 °F /  24.7 °C 62.0 °F /  16.7 °C 29.98in /  1015.1hPa SW 8.0mph /  12.9km/h 23.0mph /  37km/h 61% 0.00in /  0mm
09:55 76.8 °F /  24.9 °C 61.9 °F /  16.6 °C 29.98in /  1015.1hPa SW 14.0mph /  22.5km/h 16.0mph /  25.7km/h 60% 0.00in /  0mm
09:59 76.9 °F /  24.9 °C 62.0 °F /  16.7 °C 29.98in /  1015.1hPa WSW 9.0mph /  14.5km/h 20.0mph /  32.2km/h 60% 0.00in /  0mm
10:05 77.2 °F /  25.1 °C 61.8 °F /  16.6 °C 29.98in /  1015.1hPa WSW 9.0mph /  14.5km/h 20.0mph /  32.2km/h 59% 0.00in /  0mm
10:09 76.9 °F /  24.9 °C 61.5 °F /  16.4 °C 29.99in /  1015.5hPa WSW 10.0mph /  16.1km/h 24.0mph /  38.6km/h 59% 0.00in /  0mm
10:15 77.0 °F /  25 °C 62.0 °F /  16.7 °C 29.98in /  1015.1hPa WSW 11.0mph /  17.7km/h 24.0mph /  38.6km/h 60% 0.00in /  0mm
10:20 77.2 °F /  25.1 °C 61.8 °F /  16.6 °C 29.98in /  1015.1hPa WSW 11.0mph /  17.7km/h 22.0mph /  35.4km/h 59% 0.00in /  0mm
10:24 77.1 °F /  25.1 °C 61.7 °F /  16.5 °C 29.98in /  1015.1hPa SW 7.0mph /  11.3km/h 21.0mph /  33.8km/h 59% 0.00in /  0mm
10:29 77.1 °F /  25.1 °C 61.2 °F /  16.2 °C 29.98in /  1015.1hPa WNW 11.0mph /  17.7km/h 23.0mph /  37km/h 58% 0.00in /  0mm
10:34 77.4 °F /  25.2 °C 61.9 °F /  16.6 °C 29.98in /  1015.1hPa West 12.0mph /  19.3km/h 20.0mph /  32.2km/h 59% 0.00in /  0mm
10:40 77.5 °F /  25.3 °C 61.6 °F /  16.4 °C 29.98in /  1015.1hPa SSW 7.0mph /  11.3km/h 20.0mph /  32.2km/h 58% 0.00in /  0mm
10:45 77.4 °F /  25.2 °C 61.9 °F /  16.6 °C 29.98in /  1015.1hPa West 5.0mph /  8km/h 22.0mph /  35.4km/h 59% 0.00in /  0mm
10:50 77.5 °F /  25.3 °C 61.6 °F /  16.4 °C 29.98in /  1015.1hPa SW 7.0mph /  11.3km/h 20.0mph /  32.2km/h 58% 0.00in /  0mm
10:55 78.4 °F /  25.8 °C 62.9 °F /  17.2 °C 29.98in /  1015.1hPa WSW 7.0mph /  11.3km/h 14.0mph /  22.5km/h 59% 0.00in /  0mm
10:59 78.0 °F /  25.6 °C 62.0 °F /  16.7 °C 29.98in /  1015.1hPa WSW 9.0mph /  14.5km/h 21.0mph /  33.8km/h 58% 0.00in /  0mm
11:04 78.0 °F /  25.6 °C 62.5 °F /  16.9 °C 29.98in /  1015.1hPa WSW 11.0mph /  17.7km/h 27.0mph /  43.5km/h 59% 0.00in /  0mm
11:10 78.2 °F /  25.7 °C 61.7 °F /  16.5 °C 29.98in /  1015.1hPa WSW 11.0mph /  17.7km/h 27.0mph /  43.5km/h 57% 0.00in /  0mm
11:15 78.1 °F /  25.6 °C 61.6 °F /  16.4 °C 29.98in /  1015.1hPa WSW 12.0mph /  19.3km/h 23.0mph /  37km/h 57% 0.00in /  0mm
11:20 78.2 °F /  25.7 °C 61.7 °F /  16.5 °C 29.98in /  1015.1hPa WSW 12.0mph /  19.3km/h 23.0mph /  37km/h 57% 0.00in /  0mm
11:25 78.1 °F /  25.6 °C 61.6 °F /  16.4 °C 29.97in /  1014.8hPa SW 12.0mph /  19.3km/h 25.0mph /  40.2km/h 57% 0.00in /  0mm
11:29 78.2 °F /  25.7 °C 62.2 °F /  16.8 °C 29.97in /  1014.8hPa WSW 11.0mph /  17.7km/h 25.0mph /  40.2km/h 58% 0.00in /  0mm
11:34 77.8 °F /  25.4 °C 61.8 °F /  16.6 °C 29.97in /  1014.8hPa SW 22.0mph /  35.4km/h 26.0mph /  41.8km/h 58% 0.00in /  0mm
11:39 78.2 °F /  25.7 °C 61.7 °F /  16.5 °C 29.97in /  1014.8hPa SSE 6.0mph /  9.7km/h 25.0mph /  40.2km/h 57% 0.00in /  0mm
11:44 78.3 °F /  25.7 °C 61.8 °F /  16.6 °C 29.97in /  1014.8hPa SW 13.0mph /  20.9km/h 25.0mph /  40.2km/h 57% 0.00in /  0mm
11:49 78.7 °F /  25.9 °C 62.2 °F /  16.8 °C 29.98in /  1015.1hPa WNW 15.0mph /  24.1km/h 20.0mph /  32.2km/h 57% 0.00in /  0mm
11:55 78.6 °F /  25.9 °C 62.1 °F /  16.7 °C 29.99in /  1015.5hPa SW 12.0mph /  19.3km/h 25.0mph /  40.2km/h 57% 0.00in /  0mm
12:00 78.7 °F /  25.9 °C 62.2 °F /  16.8 °C 29.98in /  1015.1hPa SW 12.0mph /  19.3km/h 25.0mph /  40.2km/h 57% 0.00in /  0mm
12:04 79.2 °F /  26.2 °C 62.7 °F /  17.1 °C 29.99in /  1015.5hPa SW 11.0mph /  17.7km/h 22.0mph /  35.4km/h 57% 0.00in /  0mm
12:09 79.1 °F /  26.2 °C 61.5 °F /  16.4 °C 29.99in /  1015.5hPa WSW 10.0mph /  16.1km/h 21.0mph /  33.8km/h 55% 0.00in /  0mm
12:14 78.4 °F /  25.8 °C 61.9 °F /  16.6 °C 29.99in /  1015.5hPa WSW 12.0mph /  19.3km/h 22.0mph /  35.4km/h 57% 0.00in /  0mm
12:20 78.6 °F /  25.9 °C 61.6 °F /  16.4 °C 30.00in /  1015.8hPa WSW 12.0mph /  19.3km/h 24.0mph /  38.6km/h 56% 0.00in /  0mm
12:25 78.6 °F /  25.9 °C 62.1 °F /  16.7 °C 30.00in /  1015.8hPa WNW 8.0mph /  12.9km/h 24.0mph /  38.6km/h 57% 0.00in /  0mm
12:29 78.4 °F /  25.8 °C 61.9 °F /  16.6 °C 29.99in /  1015.5hPa WSW 12.0mph /  19.3km/h 24.0mph /  38.6km/h 57% 0.00in /  0mm
12:34 78.5 °F /  25.8 °C 62.5 °F /  16.9 °C 29.99in /  1015.5hPa WSW 12.0mph /  19.3km/h 24.0mph /  38.6km/h 58% 0.00in /  0mm
12:40 78.1 °F /  25.6 °C 62.1 °F /  16.7 °C 29.99in /  1015.5hPa WSW 12.0mph /  19.3km/h 24.0mph /  38.6km/h 58% 0.00in /  0mm
12:45 78.0 °F /  25.6 °C 62.0 °F /  16.7 °C 29.99in /  1015.5hPa WSW 12.0mph /  19.3km/h 23.0mph /  37km/h 58% 0.00in /  0mm
12:49 78.0 °F /  25.6 °C 62.0 °F /  16.7 °C 29.99in /  1015.5hPa West 12.0mph /  19.3km/h 24.0mph /  38.6km/h 58% 0.00in /  0mm
12:54 77.8 °F /  25.4 °C 61.8 °F /  16.6 °C 29.99in /  1015.5hPa West 14.0mph /  22.5km/h 25.0mph /  40.2km/h 58% 0.00in /  0mm
12:59 78.4 °F /  25.8 °C 62.4 °F /  16.9 °C 29.99in /  1015.5hPa WSW 16.0mph /  25.7km/h 19.0mph /  30.6km/h 58% 0.00in /  0mm
13:04 78.6 °F /  25.9 °C 62.6 °F /  17 °C 30.00in /  1015.8hPa WSW 10.0mph /  16.1km/h 21.0mph /  33.8km/h 58% 0.00in /  0mm
13:09 79.1 °F /  26.2 °C 62.1 °F /  16.7 °C 30.00in /  1015.8hPa NNE 6.0mph /  9.7km/h 21.0mph /  33.8km/h 56% 0.00in /  0mm
13:15 78.8 °F /  26 °C 61.8 °F /  16.6 °C 30.00in /  1015.8hPa West 11.0mph /  17.7km/h 29.0mph /  46.7km/h 56% 0.00in /  0mm
13:20 78.9 °F /  26.1 °C 62.4 °F /  16.9 °C 30.00in /  1015.8hPa SW 14.0mph /  22.5km/h 19.0mph /  30.6km/h 57% 0.00in /  0mm
13:24 78.7 °F /  25.9 °C 62.2 °F /  16.8 °C 30.00in /  1015.8hPa WSW 22.0mph /  35.4km/h 25.0mph /  40.2km/h 57% 0.00in /  0mm
13:29 79.0 °F /  26.1 °C 62.0 °F /  16.7 °C 30.00in /  1015.8hPa WSW 11.0mph /  17.7km/h 25.0mph /  40.2km/h 56% 0.00in /  0mm
13:34 78.6 °F /  25.9 °C 61.1 °F /  16.2 °C 30.00in /  1015.8hPa WSW 11.0mph /  17.7km/h 25.0mph /  40.2km/h 55% 0.00in /  0mm
13:39 78.5 °F /  25.8 °C 62.0 °F /  16.7 °C 30.00in /  1015.8hPa WSW 12.0mph /  19.3km/h 24.0mph /  38.6km/h 57% 0.00in /  0mm
13:45 78.3 °F /  25.7 °C 61.8 °F /  16.6 °C 30.00in /  1015.8hPa WSW 11.0mph /  17.7km/h 22.0mph /  35.4km/h 57% 0.00in /  0mm
13:49 78.0 °F /  25.6 °C 61.5 °F /  16.4 °C 30.00in /  1015.8hPa West 7.0mph /  11.3km/h 22.0mph /  35.4km/h 57% 0.00in /  0mm
13:54 78.5 °F /  25.8 °C 62.0 °F /  16.7 °C 29.99in /  1015.5hPa West 11.0mph /  17.7km/h 23.0mph /  37km/h 57% 0.00in /  0mm
13:59 78.7 °F /  25.9 °C 62.2 °F /  16.8 °C 29.99in /  1015.5hPa West 13.0mph /  20.9km/h 19.0mph /  30.6km/h 57% 0.00in /  0mm
14:04 79.0 °F /  26.1 °C 62.0 °F /  16.7 °C 29.99in /  1015.5hPa WSW 11.0mph /  17.7km/h 28.0mph /  45.1km/h 56% 0.00in /  0mm
14:10 79.1 °F /  26.2 °C 62.6 °F /  17 °C 29.99in /  1015.5hPa West 8.0mph /  12.9km/h 26.0mph /  41.8km/h 57% 0.00in /  0mm
14:14 79.3 °F /  26.3 °C 62.7 °F /  17.1 °C 29.99in /  1015.5hPa WSW 4.0mph /  6.4km/h 28.0mph /  45.1km/h 57% 0.00in /  0mm
14:19 79.4 °F /  26.3 °C 62.8 °F /  17.1 °C 29.99in /  1015.5hPa West 11.0mph /  17.7km/h 28.0mph /  45.1km/h 57% 0.00in /  0mm
14:24 79.4 °F /  26.3 °C 61.8 °F /  16.6 °C 29.99in /  1015.5hPa WSW 11.0mph /  17.7km/h 28.0mph /  45.1km/h 55% 0.00in /  0mm
14:29 79.8 °F /  26.6 °C 62.7 °F /  17.1 °C 29.99in /  1015.5hPa WSW 11.0mph /  17.7km/h 24.0mph /  38.6km/h 56% 0.00in /  0mm
14:34 80.2 °F /  26.8 °C 63.1 °F /  17.3 °C 29.99in /  1015.5hPa WSW 11.0mph /  17.7km/h 24.0mph /  38.6km/h 56% 0.00in /  0mm
14:39 80.2 °F /  26.8 °C 62.6 °F /  17 °C 30.00in /  1015.8hPa WSW 11.0mph /  17.7km/h 26.0mph /  41.8km/h 55% 0.00in /  0mm
14:44 80.5 °F /  26.9 °C 62.3 °F /  16.8 °C 30.00in /  1015.8hPa WSW 11.0mph /  17.7km/h 26.0mph /  41.8km/h 54% 0.00in /  0mm
14:49 80.6 °F /  27 °C 62.9 °F /  17.2 °C 29.99in /  1015.5hPa SW 9.0mph /  14.5km/h 20.0mph /  32.2km/h 55% 0.00in /  0mm
14:54 80.5 °F /  26.9 °C 62.3 °F /  16.8 °C 29.99in /  1015.5hPa WSW 11.0mph /  17.7km/h 22.0mph /  35.4km/h 54% 0.00in /  0mm
14:59 80.4 °F /  26.9 °C 62.2 °F /  16.8 °C 29.99in /  1015.5hPa West 15.0mph /  24.1km/h 21.0mph /  33.8km/h 54% 0.00in /  0mm
15:04 79.9 °F /  26.6 °C 61.8 °F /  16.6 °C 29.99in /  1015.5hPa WSW 6.0mph /  9.7km/h 26.0mph /  41.8km/h 54% 0.00in /  0mm
15:09 79.6 °F /  26.4 °C 61.5 °F /  16.4 °C 29.99in /  1015.5hPa West 8.0mph /  12.9km/h 24.0mph /  38.6km/h 54% 0.00in /  0mm
15:15 79.4 °F /  26.3 °C 61.8 °F /  16.6 °C 30.00in /  1015.8hPa SW 6.0mph /  9.7km/h 22.0mph /  35.4km/h 55% 0.00in /  0mm
15:20 79.5 °F /  26.4 °C 61.9 °F /  16.6 °C 30.00in /  1015.8hPa SW 12.0mph /  19.3km/h 21.0mph /  33.8km/h 55% 0.00in /  0mm
15:24 79.0 °F /  26.1 °C 62.0 °F /  16.7 °C 30.00in /  1015.8hPa WSW 12.0mph /  19.3km/h 24.0mph /  38.6km/h 56% 0.00in /  0mm
15:29 78.7 °F /  25.9 °C 61.7 °F /  16.5 °C 30.00in /  1015.8hPa WSW 12.0mph /  19.3km/h 24.0mph /  38.6km/h 56% 0.00in /  0mm
15:34 78.8 °F /  26 °C 62.3 °F /  16.8 °C 29.99in /  1015.5hPa WSW 12.0mph /  19.3km/h 24.0mph /  38.6km/h 57% 0.00in /  0mm
15:39 78.8 °F /  26 °C 62.3 °F /  16.8 °C 29.99in /  1015.5hPa WSW 11.0mph /  17.7km/h 24.0mph /  38.6km/h 57% 0.00in /  0mm
15:45 78.9 °F /  26.1 °C 62.4 °F /  16.9 °C 29.99in /  1015.5hPa WSW 10.0mph /  16.1km/h 19.0mph /  30.6km/h 57% 0.00in /  0mm
15:50 78.6 °F /  25.9 °C 61.6 °F /  16.4 °C 29.99in /  1015.5hPa SW 10.0mph /  16.1km/h 22.0mph /  35.4km/h 56% 0.00in /  0mm
15:54 78.8 °F /  26 °C 62.3 °F /  16.8 °C 29.99in /  1015.5hPa West 8.0mph /  12.9km/h 17.0mph /  27.4km/h 57% 0.00in /  0mm
15:59 78.9 °F /  26.1 °C 61.9 °F /  16.6 °C 29.99in /  1015.5hPa West 9.0mph /  14.5km/h 17.0mph /  27.4km/h 56% 0.00in /  0mm
16:04 79.1 °F /  26.2 °C 61.5 °F /  16.4 °C 29.99in /  1015.5hPa WSW 7.0mph /  11.3km/h 15.0mph /  24.1km/h 55% 0.00in /  0mm
16:09 78.9 °F /  26.1 °C 61.9 °F /  16.6 °C 29.99in /  1015.5hPa WSW 13.0mph /  20.9km/h 20.0mph /  32.2km/h 56% 0.00in /  0mm
16:14 79.1 °F /  26.2 °C 62.6 °F /  17 °C 29.99in /  1015.5hPa WSW 8.0mph /  12.9km/h 17.0mph /  27.4km/h 57% 0.00in /  0mm
16:19 78.7 °F /  25.9 °C 61.7 °F /  16.5 °C 29.99in /  1015.5hPa West 10.0mph /  16.1km/h 18.0mph /  29km/h 56% 0.00in /  0mm
16:24 78.5 °F /  25.8 °C 62.0 °F /  16.7 °C 29.99in /  1015.5hPa WSW 10.0mph /  16.1km/h 18.0mph /  29km/h 57% 0.00in /  0mm
16:29 78.6 °F /  25.9 °C 62.1 °F /  16.7 °C 29.99in /  1015.5hPa WSW 9.0mph /  14.5km/h 17.0mph /  27.4km/h 57% 0.00in /  0mm
16:34 79.0 °F /  26.1 °C 63.0 °F /  17.2 °C 29.99in /  1015.5hPa WSW 8.0mph /  12.9km/h 17.0mph /  27.4km/h 58% 0.00in /  0mm
16:39 79.2 °F /  26.2 °C 62.7 °F /  17.1 °C 29.98in /  1015.1hPa WSW 8.0mph /  12.9km/h 17.0mph /  27.4km/h 57% 0.00in /  0mm
16:44 79.8 °F /  26.6 °C 62.7 °F /  17.1 °C 29.98in /  1015.1hPa WSW 7.0mph /  11.3km/h 16.0mph /  25.7km/h 56% 0.00in /  0mm
16:50 79.6 °F /  26.4 °C 62.5 °F /  16.9 °C 29.98in /  1015.1hPa West 5.0mph /  8km/h 14.0mph /  22.5km/h 56% 0.00in /  0mm
16:54 79.3 °F /  26.3 °C 62.2 °F /  16.8 °C 29.98in /  1015.1hPa SW 6.0mph /  9.7km/h 22.0mph /  35.4km/h 56% 0.00in /  0mm
16:59 79.1 °F /  26.2 °C 61.5 °F /  16.4 °C 29.98in /  1015.1hPa SW 8.0mph /  12.9km/h 17.0mph /  27.4km/h 55% 0.00in /  0mm
17:04 79.1 °F /  26.2 °C 61.5 °F /  16.4 °C 29.98in /  1015.1hPa WSW 11.0mph /  17.7km/h 17.0mph /  27.4km/h 55% 0.00in /  0mm
17:09 79.1 °F /  26.2 °C 61.5 °F /  16.4 °C 29.97in /  1014.8hPa SW 7.0mph /  11.3km/h 16.0mph /  25.7km/h 55% 0.00in /  0mm
17:14 79.7 °F /  26.5 °C 61.6 °F /  16.4 °C 29.97in /  1014.8hPa SW 4.0mph /  6.4km/h 19.0mph /  30.6km/h 54% 0.00in /  0mm
17:19 80.4 °F /  26.9 °C 61.2 °F /  16.2 °C 29.97in /  1014.8hPa WSW 6.0mph /  9.7km/h 18.0mph /  29km/h 52% 0.00in /  0mm
17:29 81.2 °F /  27.3 °C 60.8 °F /  16 °C 29.98in /  1015.1hPa WSW 8.0mph /  12.9km/h 17.0mph /  27.4km/h 50% 0.00in /  0mm
17:35 81.0 °F /  27.2 °C 60.6 °F /  15.9 °C 29.97in /  1014.8hPa WSW 8.0mph /  12.9km/h 17.0mph /  27.4km/h 50% 0.00in /  0mm
17:39 80.9 °F /  27.2 °C 60.5 °F /  15.8 °C 29.98in /  1015.1hPa WSW 8.0mph /  12.9km/h 15.0mph /  24.1km/h 50% 0.00in /  0mm
17:44 80.5 °F /  26.9 °C 61.3 °F /  16.3 °C 29.98in /  1015.1hPa West 18.0mph /  29km/h 18.0mph /  29km/h 52% 0.00in /  0mm
17:49 79.9 °F /  26.6 °C 61.2 °F /  16.2 °C 29.98in /  1015.1hPa West 7.0mph /  11.3km/h 18.0mph /  29km/h 53% 0.00in /  0mm
17:54 79.8 °F /  26.6 °C 61.1 °F /  16.2 °C 29.98in /  1015.1hPa WSW 8.0mph /  12.9km/h 18.0mph /  29km/h 53% 0.00in /  0mm
17:59 79.4 °F /  26.3 °C 61.3 °F /  16.3 °C 29.98in /  1015.1hPa WSW 8.0mph /  12.9km/h 16.0mph /  25.7km/h 54% 0.00in /  0mm
18:04 79.3 °F /  26.3 °C 61.7 °F /  16.5 °C 29.98in /  1015.1hPa WSW 8.0mph /  12.9km/h 16.0mph /  25.7km/h 55% 0.00in /  0mm
18:09 79.1 °F /  26.2 °C 61.5 °F /  16.4 °C 29.98in /  1015.1hPa SW 13.0mph /  20.9km/h 15.0mph /  24.1km/h 55% 0.00in /  0mm
18:14 78.6 °F /  25.9 °C 61.1 °F /  16.2 °C 29.98in /  1015.1hPa West 5.0mph /  8km/h 13.0mph /  20.9km/h 55% 0.00in /  0mm
18:19 78.4 °F /  25.8 °C 61.4 °F /  16.3 °C 29.98in /  1015.1hPa SW 6.0mph /  9.7km/h 16.0mph /  25.7km/h 56% 0.00in /  0mm
18:24 78.2 °F /  25.7 °C 61.7 °F /  16.5 °C 29.98in /  1015.1hPa WSW 7.0mph /  11.3km/h 16.0mph /  25.7km/h 57% 0.00in /  0mm
18:29 77.8 °F /  25.4 °C 61.8 °F /  16.6 °C 29.97in /  1014.8hPa WSW 7.0mph /  11.3km/h 14.0mph /  22.5km/h 58% 0.00in /  0mm
18:34 77.4 °F /  25.2 °C 61.0 °F /  16.1 °C 29.97in /  1014.8hPa SW 3.0mph /  4.8km/h 15.0mph /  24.1km/h 57% 0.00in /  0mm
18:39 77.1 °F /  25.1 °C 60.7 °F /  15.9 °C 29.97in /  1014.8hPa WSW 8.0mph /  12.9km/h 18.0mph /  29km/h 57% 0.00in /  0mm
18:44 77.0 °F /  25 °C 61.1 °F /  16.2 °C 29.97in /  1014.8hPa SW 5.0mph /  8km/h 12.0mph /  19.3km/h 58% 0.00in /  0mm
18:50 76.7 °F /  24.8 °C 60.8 °F /  16 °C 29.97in /  1014.8hPa SW 5.0mph /  8km/h 15.0mph /  24.1km/h 58% 0.00in /  0mm
18:54 76.4 °F /  24.7 °C 61.5 °F /  16.4 °C 29.97in /  1014.8hPa WSW 7.0mph /  11.3km/h 15.0mph /  24.1km/h 60% 0.00in /  0mm
18:59 76.1 °F /  24.5 °C 61.2 °F /  16.2 °C 29.98in /  1015.1hPa WSW 6.0mph /  9.7km/h 13.0mph /  20.9km/h 60% 0.00in /  0mm
19:04 75.8 °F /  24.3 °C 60.9 °F /  16.1 °C 29.97in /  1014.8hPa WSW 6.0mph /  9.7km/h 12.0mph /  19.3km/h 60% 0.00in /  0mm
19:09 75.5 °F /  24.2 °C 61.1 °F /  16.2 °C 29.97in /  1014.8hPa WSW 6.0mph /  9.7km/h 12.0mph /  19.3km/h 61% 0.00in /  0mm
19:14 75.4 °F /  24.1 °C 61.0 °F /  16.1 °C 29.97in /  1014.8hPa SW 8.0mph /  12.9km/h 12.0mph /  19.3km/h 61% 0.00in /  0mm
19:19 75.2 °F /  24 °C 60.8 °F /  16 °C 29.97in /  1014.8hPa WSW 5.0mph /  8km/h 10.0mph /  16.1km/h 61% 0.00in /  0mm
19:24 75.0 °F /  23.9 °C 61.1 °F /  16.2 °C 29.97in /  1014.8hPa WSW 6.0mph /  9.7km/h 13.0mph /  20.9km/h 62% 0.00in /  0mm
19:29 74.7 °F /  23.7 °C 60.8 °F /  16 °C 29.97in /  1014.8hPa WSW 6.0mph /  9.7km/h 13.0mph /  20.9km/h 62% 0.00in /  0mm
19:34 74.5 °F /  23.6 °C 60.6 °F /  15.9 °C 29.97in /  1014.8hPa WSW 4.0mph /  6.4km/h 13.0mph /  20.9km/h 62% 0.00in /  0mm
19:39 74.2 °F /  23.4 °C 60.8 °F /  16 °C 29.97in /  1014.8hPa WSW 5.0mph /  8km/h 9.0mph /  14.5km/h 63% 0.00in /  0mm
19:44 74.0 °F /  23.3 °C 60.6 °F /  15.9 °C 29.97in /  1014.8hPa SW 4.0mph /  6.4km/h 11.0mph /  17.7km/h 63% 0.00in /  0mm
19:49 73.9 °F /  23.3 °C 61.0 °F /  16.1 °C 29.97in /  1014.8hPa SW 6.0mph /  9.7km/h 12.0mph /  19.3km/h 64% 0.00in /  0mm
19:54 73.6 °F /  23.1 °C 61.1 °F /  16.2 °C 29.97in /  1014.8hPa SW 4.0mph /  6.4km/h 12.0mph /  19.3km/h 65% 0.00in /  0mm
19:59 73.3 °F /  22.9 °C 60.8 °F /  16 °C 29.98in /  1015.1hPa SW 4.0mph /  6.4km/h 11.0mph /  17.7km/h 65% 0.00in /  0mm
20:04 73.2 °F /  22.9 °C 60.7 °F /  15.9 °C 29.97in /  1014.8hPa SW 4.0mph /  6.4km/h 11.0mph /  17.7km/h 65% 0.00in /  0mm
20:09 72.6 °F /  22.6 °C 60.6 °F /  15.9 °C 29.97in /  1014.8hPa SW 4.0mph /  6.4km/h 8.0mph /  12.9km/h 66% 0.00in /  0mm
20:14 72.1 °F /  22.3 °C 60.5 °F /  15.8 °C 29.97in /  1014.8hPa SSW 2.0mph /  3.2km/h 7.0mph /  11.3km/h 67% 0.00in /  0mm
20:19 71.9 °F /  22.2 °C 60.3 °F /  15.7 °C 29.98in /  1015.1hPa SSW 2.0mph /  3.2km/h 5.0mph /  8km/h 67% 0.00in /  0mm
20:29 71.4 °F /  21.9 °C 60.3 °F /  15.7 °C 29.98in /  1015.1hPa SW 5.0mph /  8km/h 7.0mph /  11.3km/h 68% 0.00in /  0mm
20:34 71.3 °F /  21.8 °C 60.2 °F /  15.7 °C 29.97in /  1014.8hPa SW 4.0mph /  6.4km/h 9.0mph /  14.5km/h 68% 0.00in /  0mm
20:39 71.4 °F /  21.9 °C 60.3 °F /  15.7 °C 29.97in /  1014.8hPa WSW 6.0mph /  9.7km/h 7.0mph /  11.3km/h 68% 0.00in /  0mm
20:44 71.4 °F /  21.9 °C 60.3 °F /  15.7 °C 29.97in /  1014.8hPa WSW 3.0mph /  4.8km/h 9.0mph /  14.5km/h 68% 0.00in /  0mm
20:49 71.6 °F /  22 °C 60.1 °F /  15.6 °C 29.97in /  1014.8hPa WSW 3.0mph /  4.8km/h 9.0mph /  14.5km/h 67% 0.00in /  0mm
20:54 71.7 °F /  22.1 °C 60.2 °F /  15.7 °C 29.96in /  1014.4hPa WSW 4.0mph /  6.4km/h 9.0mph /  14.5km/h 67% 0.00in /  0mm
20:59 71.6 °F /  22 °C 60.1 °F /  15.6 °C 29.96in /  1014.4hPa SW 3.0mph /  4.8km/h 9.0mph /  14.5km/h 67% 0.00in /  0mm
21:04 71.8 °F /  22.1 °C 60.2 °F /  15.7 °C 29.96in /  1014.4hPa SW 1.0mph /  1.6km/h 8.0mph /  12.9km/h 67% 0.00in /  0mm
21:09 71.7 °F /  22.1 °C 60.2 °F /  15.7 °C 29.96in /  1014.4hPa SW 2.0mph /  3.2km/h 8.0mph /  12.9km/h 67% 0.00in /  0mm
21:14 71.9 °F /  22.2 °C 59.9 °F /  15.5 °C 29.96in /  1014.4hPa SW 2.0mph /  3.2km/h 7.0mph /  11.3km/h 66% 0.00in /  0mm
21:19 71.9 °F /  22.2 °C 59.9 °F /  15.5 °C 29.96in /  1014.4hPa SW 3.0mph /  4.8km/h 7.0mph /  11.3km/h 66% 0.00in /  0mm
21:24 72.0 °F /  22.2 °C 60.0 °F /  15.6 °C 29.96in /  1014.4hPa SW 2.0mph /  3.2km/h 6.0mph /  9.7km/h 66% 0.00in /  0mm
21:29 72.0 °F /  22.2 °C 60.0 °F /  15.6 °C 29.96in /  1014.4hPa WSW 1.0mph /  1.6km/h 4.0mph /  6.4km/h 66% 0.00in /  0mm
21:34 72.0 °F /  22.2 °C 60.0 °F /  15.6 °C 29.96in /  1014.4hPa Calm   3.0mph /  4.8km/h 66% 0.00in /  0mm
21:39 71.8 °F /  22.1 °C 59.8 °F /  15.4 °C 29.96in /  1014.4hPa WSW 1.0mph /  1.6km/h 5.0mph /  8km/h 66% 0.00in /  0mm
21:44 72.0 °F /  22.2 °C 60.0 °F /  15.6 °C 29.96in /  1014.4hPa SW 2.0mph /  3.2km/h 6.0mph /  9.7km/h 66% 0.00in /  0mm
21:49 72.3 °F /  22.4 °C 59.9 °F /  15.5 °C 29.96in /  1014.4hPa Calm   5.0mph /  8km/h 65% 0.00in /  0mm
21:54 72.0 °F /  22.2 °C 60.0 °F /  15.6 °C 29.96in /  1014.4hPa SW 1.0mph /  1.6km/h 5.0mph /  8km/h 66% 0.00in /  0mm
21:59 71.6 °F /  22 °C 59.6 °F /  15.3 °C 29.96in /  1014.4hPa Calm   3.0mph /  4.8km/h 66% 0.00in /  0mm
22:04 71.6 °F /  22 °C 59.6 °F /  15.3 °C 29.96in /  1014.4hPa Calm     66% 0.00in /  0mm
22:09 71.6 °F /  22 °C 59.6 °F /  15.3 °C 29.96in /  1014.4hPa Calm     66% 0.00in /  0mm
22:14 71.6 °F /  22 °C 59.6 °F /  15.3 °C 29.96in /  1014.4hPa Calm     66% 0.00in /  0mm
22:19 71.7 °F /  22.1 °C 59.3 °F /  15.2 °C 29.96in /  1014.4hPa SW 2.0mph /  3.2km/h 4.0mph /  6.4km/h 65% 0.00in /  0mm
22:24 72.1 °F /  22.3 °C 59.2 °F /  15.1 °C 29.96in /  1014.4hPa SW 1.0mph /  1.6km/h 4.0mph /  6.4km/h 64% 0.00in /  0mm
22:29 72.6 °F /  22.6 °C 59.3 °F /  15.2 °C 29.96in /  1014.4hPa SW 1.0mph /  1.6km/h 4.0mph /  6.4km/h 63% 0.00in /  0mm
22:34 72.7 °F /  22.6 °C 59.4 °F /  15.2 °C 29.96in /  1014.4hPa SW 1.0mph /  1.6km/h 4.0mph /  6.4km/h 63% 0.00in /  0mm
22:39 72.8 °F /  22.7 °C 59.5 °F /  15.3 °C 29.96in /  1014.4hPa SW 1.0mph /  1.6km/h 5.0mph /  8km/h 63% 0.00in /  0mm
22:44 73.2 °F /  22.9 °C 59.4 °F /  15.2 °C 29.95in /  1014.1hPa SSW 2.0mph /  3.2km/h 5.0mph /  8km/h 62% 0.00in /  0mm
22:49 73.5 °F /  23.1 °C 59.7 °F /  15.4 °C 29.95in /  1014.1hPa SSW 1.0mph /  1.6km/h 5.0mph /  8km/h 62% 0.00in /  0mm
22:54 73.4 °F /  23 °C 59.6 °F /  15.3 °C 29.95in /  1014.1hPa SW 2.0mph /  3.2km/h 4.0mph /  6.4km/h 62% 0.00in /  0mm
22:59 73.6 °F /  23.1 °C 59.8 °F /  15.4 °C 29.95in /  1014.1hPa SSW 2.0mph /  3.2km/h 4.0mph /  6.4km/h 62% 0.00in /  0mm
23:04 73.7 °F /  23.2 °C 59.9 °F /  15.5 °C 29.96in /  1014.4hPa SSW 2.0mph /  3.2km/h 4.0mph /  6.4km/h 62% 0.00in /  0mm
23:09 73.6 °F /  23.1 °C 59.8 °F /  15.4 °C 29.95in /  1014.1hPa SSW 2.0mph /  3.2km/h 4.0mph /  6.4km/h 62% 0.00in /  0mm
23:14 73.5 °F /  23.1 °C 59.7 °F /  15.4 °C 29.96in /  1014.4hPa Calm   2.0mph /  3.2km/h 62% 0.00in /  0mm
23:19 73.0 °F /  22.8 °C 59.7 °F /  15.4 °C 29.96in /  1014.4hPa Calm   2.0mph /  3.2km/h 63% 0.00in /  0mm
23:24 72.2 °F /  22.3 °C 59.3 °F /  15.2 °C 29.95in /  1014.1hPa Calm     64% 0.00in /  0mm
23:29 71.9 °F /  22.2 °C 59.5 °F /  15.3 °C 29.95in /  1014.1hPa Calm     65% 0.00in /  0mm
23:34 71.5 °F /  21.9 °C 59.5 °F /  15.3 °C 29.95in /  1014.1hPa Calm     66% 0.00in /  0mm
23:39 71.2 °F /  21.8 °C 59.7 °F /  15.4 °C 29.95in /  1014.1hPa Calm     67% 0.00in /  0mm
23:44 71.0 °F /  21.7 °C 59.5 °F /  15.3 °C 29.95in /  1014.1hPa Calm     67% 0.00in /  0mm
23:49 70.9 °F /  21.6 °C 59.4 °F /  15.2 °C 29.95in /  1014.1hPa Calm     67% 0.00in /  0mm
23:54 71.0 °F /  21.7 °C 59.5 °F /  15.3 °C 29.95in /  1014.1hPa Calm   2.0mph /  3.2km/h 67% 0.00in /  0mm
23:59 71.3 °F /  21.8 °C 59.8 °F /  15.4 °C 29.94in /  1013.8hPa Calm   2.0mph /  3.2km/h 67% 0.00in /  0mm
Buffalo, New York, USA
Compliments of Weather Underground - 2.5 mb